createdAt,value
2022-11-09T00:01:41.972Z,100585.06
2022-11-09T00:04:08.804Z,100583.91
2022-11-09T00:06:35.980Z,100586.81
2022-11-09T00:09:07.876Z,100579.34
2022-11-09T00:11:36.139Z,100585.91
2022-11-09T00:14:02.664Z,100579.72
2022-11-09T00:16:29.071Z,100571.56
2022-11-09T00:18:55.995Z,100576.13
2022-11-09T00:21:24.307Z,100573.38
2022-11-09T00:23:51.620Z,100565.84
2022-11-09T00:26:19.175Z,100571.63
2022-11-09T00:28:45.801Z,100546.59
2022-11-09T00:31:15.178Z,100572.41
2022-11-09T00:33:41.811Z,100570.97
2022-11-09T00:36:11.602Z,100570.97
2022-11-09T00:38:40.515Z,100570.09
2022-11-09T00:41:09.621Z,100573.38
2022-11-09T00:43:36.530Z,100571.09
2022-11-09T00:46:03.298Z,100547.50
2022-11-09T00:48:29.957Z,100575.06
2022-11-09T00:50:57.544Z,100566.31
2022-11-09T00:53:24.929Z,100535.66
2022-11-09T00:55:55.955Z,100535.41
2022-11-09T00:58:22.769Z,100571.22
2022-11-09T01:00:49.645Z,100578.34
2022-11-09T01:03:16.336Z,100576.25
2022-11-09T01:05:43.329Z,100571.03
2022-11-09T01:08:09.845Z,100566.91
2022-11-09T01:10:39.442Z,100571.94
2022-11-09T01:13:05.798Z,100576.50
2022-11-09T01:15:32.751Z,100581.66
2022-11-09T01:17:59.091Z,100574.50
2022-11-09T01:20:25.429Z,100580.31
2022-11-09T01:22:51.786Z,100585.69
2022-11-09T01:25:18.128Z,100586.72
2022-11-09T01:27:44.469Z,100583.00
2022-11-09T01:30:11.442Z,100582.41
2022-11-09T01:32:37.811Z,100577.34
2022-11-09T01:35:04.525Z,100581.09
2022-11-09T01:37:30.904Z,100572.53
2022-11-09T01:39:57.264Z,100583.97
2022-11-09T01:42:24.810Z,100579.34
2022-11-09T01:45:20.711Z,100575.66
2022-11-09T01:47:52.400Z,100583.91
2022-11-09T01:50:43.306Z,100583.47
2022-11-09T01:53:16.207Z,100572.59
2022-11-09T01:55:45.103Z,100578.41
2022-11-09T01:58:19.010Z,100578.41
2022-11-09T02:00:49.278Z,100587.66
2022-11-09T02:03:19.942Z,100585.28
2022-11-09T02:05:48.334Z,100570.91
2022-11-09T02:08:17.177Z,100580.31
2022-11-09T02:11:04.327Z,100578.94
2022-11-09T02:13:32.986Z,100549.88
2022-11-09T02:16:00.155Z,100577.03
2022-11-09T02:18:27.666Z,100531.97
2022-11-09T02:20:57.144Z,100568.09
2022-11-09T02:23:25.975Z,100570.66
2022-11-09T02:26:03.888Z,100560.00
2022-11-09T02:28:31.543Z,100557.00
2022-11-09T02:30:58.921Z,100563.53
2022-11-09T02:33:25.305Z,100566.84
2022-11-09T02:35:51.893Z,100565.69
2022-11-09T02:38:18.253Z,100575.03
2022-11-09T02:40:49.091Z,100573.03
2022-11-09T02:43:18.005Z,100570.16
2022-11-09T02:45:44.609Z,100574.00
2022-11-09T02:48:11.037Z,100554.38
2022-11-09T02:50:37.456Z,100565.34
2022-11-09T02:53:04.078Z,100572.84
2022-11-09T02:55:30.978Z,100576.56
2022-11-09T02:57:57.327Z,100573.19
2022-11-09T03:00:23.681Z,100581.88
2022-11-09T03:02:50.182Z,100575.28
2022-11-09T03:05:16.615Z,100566.84
2022-11-09T03:07:42.989Z,100576.06
2022-11-09T03:10:09.556Z,100541.84
2022-11-09T03:12:35.879Z,100559.50
2022-11-09T03:15:05.480Z,100561.09
2022-11-09T03:17:32.601Z,100559.38
2022-11-09T03:19:59.003Z,100575.91
2022-11-09T03:22:25.351Z,100533.53
2022-11-09T03:24:51.731Z,100572.59
2022-11-09T03:27:18.120Z,100580.81
2022-11-09T03:29:44.554Z,100571.63
2022-11-09T03:32:11.035Z,100540.00
2022-11-09T03:34:37.389Z,100583.31
2022-11-09T03:37:04.177Z,100597.31
2022-11-09T03:39:30.539Z,100602.00
2022-11-09T03:41:56.878Z,100604.97
2022-11-09T03:44:23.227Z,100593.59
2022-11-09T03:46:49.599Z,100573.81
2022-11-09T03:49:16.017Z,100616.16
2022-11-09T03:51:42.363Z,100600.47
2022-11-09T03:54:08.790Z,100586.47
2022-11-09T03:56:35.194Z,100562.63
2022-11-09T03:59:01.568Z,100586.91
2022-11-09T04:01:28.146Z,100576.94
2022-11-09T04:03:54.531Z,100594.19
2022-11-09T04:06:20.877Z,100612.63
2022-11-09T04:08:51.284Z,100616.38
2022-11-09T04:11:18.094Z,100606.53
2022-11-09T04:13:44.481Z,100601.69
2022-11-09T04:16:10.836Z,100605.97
2022-11-09T04:18:37.184Z,100604.28
2022-11-09T04:21:03.533Z,100608.66
2022-11-09T04:23:29.918Z,100604.22
2022-11-09T04:25:58.262Z,100603.34
2022-11-09T04:28:24.604Z,100597.75
2022-11-09T04:30:51.162Z,100597.56
2022-11-09T04:33:17.736Z,100597.56
2022-11-09T04:35:44.313Z,100612.53
2022-11-09T04:38:13.348Z,100605.53
2022-11-09T04:40:39.871Z,100618.75
2022-11-09T04:43:07.913Z,100621.53
2022-11-09T04:45:35.012Z,100597.88
2022-11-09T04:48:04.751Z,100638.69
2022-11-09T04:50:31.854Z,100624.31
2022-11-09T04:53:24.645Z,100642.22
2022-11-09T04:55:51.642Z,100636.50
2022-11-09T04:58:22.362Z,100608.06
2022-11-09T05:00:51.550Z,100661.91
2022-11-09T05:03:18.538Z,100630.34
2022-11-09T05:05:48.357Z,100649.47
2022-11-09T05:08:15.203Z,100652.81
2022-11-09T05:10:41.551Z,100659.31
2022-11-09T05:13:11.253Z,100661.81
2022-11-09T05:15:37.803Z,100661.19
2022-11-09T05:18:05.014Z,100652.50
2022-11-09T05:20:32.014Z,100656.53
2022-11-09T05:23:18.335Z,100659.53
2022-11-09T05:25:45.270Z,100659.56
2022-11-09T05:28:11.957Z,100668.66
2022-11-09T05:30:38.719Z,100627.94
2022-11-09T05:33:05.662Z,100673.44
2022-11-09T05:35:33.520Z,100673.03
2022-11-09T05:37:59.974Z,100659.88
2022-11-09T05:40:26.315Z,100672.28
2022-11-09T05:42:52.655Z,100655.78
2022-11-09T05:45:41.619Z,100672.94
2022-11-09T05:48:06.115Z,100656.44
2022-11-09T05:50:32.526Z,100666.81
2022-11-09T05:53:00.346Z,100667.66
2022-11-09T05:55:26.796Z,100658.09
2022-11-09T05:57:53.571Z,100654.19
2022-11-09T06:00:20.609Z,100654.09
2022-11-09T06:02:46.984Z,100658.00
2022-11-09T06:05:13.390Z,100662.00
2022-11-09T06:07:39.780Z,100662.66
2022-11-09T06:10:06.776Z,100657.94
2022-11-09T06:12:33.140Z,100637.28
2022-11-09T06:14:59.508Z,100631.47
2022-11-09T06:17:25.980Z,100665.25
2022-11-09T06:19:52.592Z,100668.53
2022-11-09T06:22:19.378Z,100657.66
2022-11-09T06:24:45.718Z,100672.28
2022-11-09T06:27:12.088Z,100667.03
2022-11-09T06:29:38.465Z,100668.75
2022-11-09T06:32:05.021Z,100675.34
2022-11-09T06:34:31.436Z,100677.84
2022-11-09T06:36:57.896Z,100670.88
2022-11-09T06:39:24.261Z,100681.16
2022-11-09T06:41:50.670Z,100685.19
2022-11-09T06:44:17.015Z,100682.31
2022-11-09T06:46:43.361Z,100684.25
2022-11-09T06:49:09.810Z,100688.88
2022-11-09T06:51:36.846Z,100692.25
2022-11-09T06:54:03.399Z,100694.09
2022-11-09T06:56:29.810Z,100695.50
2022-11-09T06:58:56.175Z,100693.53
2022-11-09T07:01:27.697Z,100710.66
2022-11-09T07:03:54.269Z,100684.16
2022-11-09T07:06:20.940Z,100717.81
2022-11-09T07:08:47.310Z,100720.00
2022-11-09T07:11:19.553Z,100716.06
2022-11-09T07:13:52.272Z,100704.47
2022-11-09T07:16:21.226Z,100727.00
2022-11-09T07:18:47.666Z,100693.34
2022-11-09T07:21:14.598Z,100717.81
2022-11-09T07:23:41.784Z,100732.41
2022-11-09T07:26:08.286Z,100719.03
2022-11-09T07:28:35.070Z,100719.16
2022-11-09T07:31:01.959Z,100729.06
2022-11-09T07:33:30.455Z,100727.56
2022-11-09T07:36:01.461Z,100734.63
2022-11-09T07:38:31.616Z,100726.28
2022-11-09T07:41:00.277Z,100725.78
2022-11-09T07:43:27.365Z,100727.13
2022-11-09T07:45:54.133Z,100704.66
2022-11-09T07:48:20.750Z,100738.84
2022-11-09T07:50:47.146Z,100741.72
2022-11-09T07:53:15.306Z,100747.69
2022-11-09T07:55:42.198Z,100723.78
2022-11-09T07:58:12.496Z,100752.25
2022-11-09T08:00:40.964Z,100757.22
2022-11-09T08:03:07.434Z,100762.25
2022-11-09T08:05:34.254Z,100762.38
2022-11-09T08:08:04.077Z,100758.84
2022-11-09T08:10:32.049Z,100760.03
2022-11-09T08:13:01.067Z,100757.06
2022-11-09T08:15:28.347Z,100761.63
2022-11-09T08:17:58.468Z,100760.41
2022-11-09T08:20:24.821Z,100758.38
2022-11-09T08:22:51.196Z,100762.53
2022-11-09T08:25:17.630Z,100763.38
2022-11-09T08:27:44.051Z,100771.81
2022-11-09T08:30:17.050Z,100773.63
2022-11-09T08:32:44.278Z,100757.81
2022-11-09T08:35:14.290Z,100767.25
2022-11-09T08:37:40.683Z,100767.78
2022-11-09T08:40:07.608Z,100757.84
2022-11-09T08:42:33.955Z,100766.53
2022-11-09T08:45:00.634Z,100760.31
2022-11-09T08:47:28.326Z,100747.34
2022-11-09T08:49:54.722Z,100764.16
2022-11-09T08:52:21.259Z,100758.53
2022-11-09T08:54:47.603Z,100755.25
2022-11-09T08:57:13.947Z,100765.03
2022-11-09T08:59:40.304Z,100766.72
2022-11-09T09:02:06.811Z,100767.91
2022-11-09T09:04:33.264Z,100754.84
2022-11-09T09:07:01.407Z,100750.09
2022-11-09T09:09:27.871Z,100760.00
2022-11-09T09:11:54.275Z,100728.50
2022-11-09T09:14:20.801Z,100749.63
2022-11-09T09:16:47.176Z,100753.56
2022-11-09T09:19:13.608Z,100761.97
2022-11-09T09:21:40.031Z,100773.56
2022-11-09T09:24:06.613Z,100769.91
2022-11-09T09:26:33.040Z,100763.84
2022-11-09T09:28:59.421Z,100750.25
2022-11-09T09:31:25.764Z,100776.25
2022-11-09T09:33:52.209Z,100776.25
2022-11-09T09:36:21.498Z,100778.59
2022-11-09T09:38:52.065Z,100781.13
2022-11-09T09:41:34.169Z,100774.66
2022-11-09T09:44:27.236Z,100786.75
2022-11-09T09:47:13.692Z,100787.09
2022-11-09T09:49:53.906Z,100761.28
2022-11-09T09:52:29.357Z,100790.53
2022-11-09T09:55:14.030Z,100785.06
2022-11-09T09:57:43.244Z,100799.16
2022-11-09T10:00:21.027Z,100789.50
2022-11-09T10:02:48.080Z,100787.16
2022-11-09T10:05:15.779Z,100783.53
2022-11-09T10:07:51.341Z,100797.50
2022-11-09T10:10:37.736Z,100798.78
2022-11-09T10:13:30.845Z,100800.50
2022-11-09T10:16:08.941Z,100808.81
2022-11-09T10:18:50.276Z,100797.56
2022-11-09T10:21:39.431Z,100805.44
2022-11-09T10:24:29.025Z,100810.19
2022-11-09T10:26:56.754Z,100798.69
2022-11-09T10:29:33.013Z,100800.03
2022-11-09T10:32:12.581Z,100796.25
2022-11-09T10:35:01.163Z,100802.41
2022-11-09T10:37:42.699Z,100807.59
2022-11-09T10:40:09.363Z,100811.38
2022-11-09T10:42:35.706Z,100812.53
2022-11-09T10:45:12.463Z,100819.53
2022-11-09T10:47:51.340Z,100813.69
2022-11-09T10:50:34.150Z,100806.06
2022-11-09T10:53:22.522Z,100818.00
2022-11-09T10:55:54.853Z,100811.00
2022-11-09T10:58:28.401Z,100800.38
2022-11-09T11:01:05.500Z,100809.19
2022-11-09T11:03:35.868Z,100806.09
2022-11-09T11:06:04.133Z,100795.94
2022-11-09T11:08:34.598Z,100793.16
2022-11-09T11:11:34.403Z,100795.00
2022-11-09T11:14:23.065Z,100797.34
2022-11-09T11:16:52.640Z,100806.00
2022-11-09T11:19:40.261Z,100798.50
2022-11-09T11:22:12.677Z,100803.47
2022-11-09T11:24:52.367Z,100796.81
2022-11-09T11:27:48.366Z,100786.03
2022-11-09T11:30:22.915Z,100797.28
2022-11-09T11:32:50.887Z,100793.25
2022-11-09T11:35:23.598Z,100802.53
2022-11-09T11:38:17.634Z,100803.06
2022-11-09T11:41:01.842Z,100808.19
2022-11-09T11:43:35.823Z,100809.00
2022-11-09T11:46:17.881Z,100806.53
2022-11-09T11:49:18.131Z,100812.31
2022-11-09T11:51:55.922Z,100805.06
2022-11-09T11:54:52.417Z,100801.72
2022-11-09T11:57:26.907Z,100800.41
2022-11-09T12:00:13.405Z,100806.56
2022-11-09T12:03:01.618Z,100810.06
2022-11-09T12:05:40.092Z,100803.50
2022-11-09T12:08:09.448Z,100799.94
2022-11-09T12:10:48.910Z,100803.84
2022-11-09T12:13:35.795Z,100800.94
2022-11-09T12:16:13.958Z,100793.06
2022-11-09T12:18:47.627Z,100768.19
2022-11-09T12:21:43.925Z,100793.63
2022-11-09T12:24:29.209Z,100774.69
2022-11-09T12:27:30.408Z,100787.09
2022-11-09T12:30:12.859Z,100800.19
2022-11-09T12:33:34.085Z,100803.13
2022-11-09T12:36:13.201Z,100799.13
2022-11-09T12:38:52.949Z,100797.09
2022-11-09T12:41:23.932Z,100801.59
2022-11-09T12:43:57.937Z,100799.69
2022-11-09T12:46:30.816Z,100795.41
2022-11-09T12:49:01.786Z,100790.97
2022-11-09T12:51:28.801Z,100789.06
2022-11-09T12:53:57.831Z,100795.13
2022-11-09T12:56:32.001Z,100768.66
2022-11-09T12:59:20.325Z,100786.38
2022-11-09T13:01:53.260Z,100791.81
2022-11-09T13:04:21.848Z,100794.13
2022-11-09T13:07:28.071Z,100788.28
2022-11-09T13:09:56.584Z,100788.88
2022-11-09T13:12:37.713Z,100783.09
2022-11-09T13:15:34.427Z,100779.84
2022-11-09T13:18:26.058Z,100768.66
2022-11-09T13:20:55.897Z,100771.22
2022-11-09T13:23:54.509Z,100770.66
2022-11-09T13:26:33.676Z,100781.94
2022-11-09T13:29:12.333Z,100788.13
2022-11-09T13:32:03.242Z,100795.31
2022-11-09T13:34:44.816Z,100801.75
2022-11-09T13:37:34.761Z,100795.19
2022-11-09T13:40:01.487Z,100806.47
2022-11-09T13:42:31.200Z,100806.47
2022-11-09T13:45:17.348Z,100823.03
2022-11-09T13:47:51.107Z,100813.81
2022-11-09T13:50:20.291Z,100829.59
2022-11-09T13:52:52.653Z,100771.22
2022-11-09T13:55:42.288Z,100823.59
2022-11-09T13:58:40.014Z,100836.06
2022-11-09T14:01:24.785Z,100816.53
2022-11-09T14:03:52.088Z,100835.22
2022-11-09T14:06:18.887Z,100828.81
2022-11-09T14:08:46.742Z,100836.72
2022-11-09T14:11:33.102Z,100838.66
2022-11-09T14:14:14.639Z,100836.78
2022-11-09T14:16:52.946Z,100856.53
2022-11-09T14:19:34.894Z,100853.53
2022-11-09T14:22:01.305Z,100856.41
2022-11-09T14:24:32.616Z,100843.38
2022-11-09T14:27:10.922Z,100872.53
2022-11-09T14:29:47.447Z,100874.69
2022-11-09T14:32:30.560Z,100876.47
2022-11-09T14:35:23.858Z,100877.75
2022-11-09T14:37:52.247Z,100877.31
2022-11-09T14:40:20.033Z,100882.00
2022-11-09T14:42:50.118Z,100887.72
2022-11-09T14:45:17.272Z,100875.38
2022-11-09T14:47:49.438Z,100901.03
2022-11-09T14:50:23.023Z,100898.53
2022-11-09T14:52:51.604Z,100906.06
2022-11-09T14:55:20.152Z,100922.50
2022-11-09T14:57:48.771Z,100909.69
2022-11-09T15:00:23.861Z,100918.91
2022-11-09T15:02:50.227Z,100918.44
2022-11-09T15:05:39.221Z,100935.28
2022-11-09T15:08:19.043Z,100927.94
2022-11-09T15:10:51.219Z,100933.41
2022-11-09T15:13:19.671Z,100937.09
2022-11-09T15:15:54.125Z,100902.03
2022-11-09T15:18:34.433Z,100906.31
2022-11-09T15:21:32.570Z,100947.94
2022-11-09T15:24:14.642Z,100944.22
2022-11-09T15:26:45.370Z,100945.06
2022-11-09T15:29:35.656Z,100938.06
2022-11-09T15:32:10.712Z,100939.34
2022-11-09T15:34:58.662Z,100943.78
2022-11-09T15:37:31.830Z,100934.00
2022-11-09T15:39:59.071Z,100918.16
2022-11-09T15:42:26.716Z,100945.22
2022-11-09T15:44:56.178Z,100949.28
2022-11-09T15:47:35.571Z,100953.72
2022-11-09T15:50:07.024Z,100966.00
2022-11-09T15:52:33.402Z,100966.50
2022-11-09T15:54:59.797Z,100979.13
2022-11-09T15:57:26.185Z,100975.78
2022-11-09T15:59:53.632Z,100968.59
2022-11-09T16:02:20.108Z,100977.97
2022-11-09T16:04:46.581Z,100983.91
2022-11-09T16:07:15.880Z,100980.91
2022-11-09T16:09:42.872Z,100989.97
2022-11-09T16:12:09.717Z,100988.34
2022-11-09T16:14:36.192Z,100947.09
2022-11-09T16:17:02.995Z,100984.84
2022-11-09T16:19:29.363Z,101000.75
2022-11-09T16:21:55.726Z,101003.47
2022-11-09T16:24:22.159Z,101010.38
2022-11-09T16:26:48.555Z,101018.66
2022-11-09T16:29:14.925Z,101020.81
2022-11-09T16:31:51.317Z,101023.97
2022-11-09T16:34:18.479Z,101019.34
2022-11-09T16:36:49.883Z,101039.50
2022-11-09T16:39:18.843Z,101027.06
2022-11-09T16:41:48.937Z,101030.13
2022-11-09T16:44:19.905Z,101014.88
2022-11-09T16:46:47.858Z,101042.19
2022-11-09T16:49:14.625Z,101053.78
2022-11-09T16:51:41.046Z,101060.88
2022-11-09T16:54:07.462Z,101064.91
2022-11-09T16:56:35.235Z,101031.19
2022-11-09T16:59:01.802Z,101066.09
2022-11-09T17:01:28.219Z,101072.19
2022-11-09T17:03:54.715Z,101067.47
2022-11-09T17:06:21.161Z,101035.44
2022-11-09T17:08:47.730Z,101061.97
2022-11-09T17:11:15.237Z,101043.00
2022-11-09T17:13:41.677Z,101055.06
2022-11-09T17:16:11.201Z,101072.19
2022-11-09T17:18:37.909Z,101088.28
2022-11-09T17:21:09.055Z,101106.78
2022-11-09T17:23:35.471Z,101103.41
2022-11-09T17:26:05.769Z,101111.97
2022-11-09T17:28:32.944Z,101112.47
2022-11-09T17:30:59.509Z,101124.41
2022-11-09T17:33:26.107Z,101111.13
2022-11-09T17:36:05.364Z,101120.38
2022-11-09T17:38:31.797Z,101122.91
2022-11-09T17:41:03.285Z,101123.22
2022-11-09T17:43:31.642Z,101128.09
2022-11-09T17:46:05.252Z,101137.34
2022-11-09T17:48:32.804Z,101128.63
2022-11-09T17:50:59.574Z,101129.63
2022-11-09T17:53:26.344Z,101115.16
2022-11-09T17:55:53.236Z,101156.03
2022-11-09T17:58:20.032Z,101159.88
2022-11-09T18:00:46.645Z,101160.53
2022-11-09T18:03:13.147Z,101154.84
2022-11-09T18:05:40.893Z,101170.31
2022-11-09T18:08:08.567Z,101177.34
2022-11-09T18:10:36.111Z,101155.16
2022-11-09T18:13:02.795Z,101188.75
2022-11-09T18:15:29.294Z,101195.13
2022-11-09T18:17:55.732Z,101196.31
2022-11-09T18:20:22.372Z,101190.06
2022-11-09T18:22:53.420Z,101197.28
2022-11-09T18:25:20.591Z,101205.53
2022-11-09T18:27:47.539Z,101206.38
2022-11-09T18:30:15.596Z,101212.75
2022-11-09T18:32:41.968Z,101221.66
2022-11-09T18:35:08.700Z,101230.22
2022-11-09T18:37:36.485Z,101221.81
2022-11-09T18:40:04.214Z,101229.22
2022-11-09T18:42:30.605Z,101198.78
2022-11-09T18:44:56.960Z,101228.72
2022-11-09T18:47:23.674Z,101238.13
2022-11-09T18:49:50.011Z,101224.00
2022-11-09T18:52:16.420Z,101230.38
2022-11-09T18:54:42.913Z,101221.94
2022-11-09T18:57:13.722Z,101241.78
2022-11-09T18:59:42.558Z,101228.31
2022-11-09T19:02:13.551Z,101249.47
2022-11-09T19:04:40.598Z,101262.88
2022-11-09T19:07:07.115Z,101261.56
2022-11-09T19:09:38.402Z,101266.91
2022-11-09T19:12:08.251Z,101264.44
2022-11-09T19:14:43.976Z,101273.97
2022-11-09T19:17:13.326Z,101281.38
2022-11-09T19:19:40.593Z,101280.72
2022-11-09T19:22:15.078Z,101288.78
2022-11-09T19:24:41.907Z,101287.75
2022-11-09T19:27:08.342Z,101293.31
2022-11-09T19:29:34.746Z,101291.84
2022-11-09T19:32:01.152Z,101293.84
2022-11-09T19:34:27.706Z,101254.84
2022-11-09T19:36:54.102Z,101287.50
2022-11-09T19:39:20.608Z,101298.59
2022-11-09T19:41:47.037Z,101315.00
2022-11-09T19:44:14.826Z,101309.44
2022-11-09T19:46:41.290Z,101321.03
2022-11-09T19:49:09.248Z,101305.25
2022-11-09T19:51:36.470Z,101312.97
2022-11-09T19:54:04.471Z,101323.38
2022-11-09T19:56:32.146Z,101328.22
2022-11-09T19:59:01.269Z,101327.69
2022-11-09T20:01:28.015Z,101334.25
2022-11-09T20:03:56.636Z,101335.75
2022-11-09T20:06:23.856Z,101350.66
2022-11-09T20:08:51.965Z,101357.22
2022-11-09T20:11:42.579Z,101362.75
2022-11-09T20:14:10.008Z,101370.59
2022-11-09T20:16:37.890Z,101381.19
2022-11-09T20:19:05.940Z,101374.97
2022-11-09T20:21:32.312Z,101390.09
2022-11-09T20:23:58.912Z,101384.31
2022-11-09T20:26:25.346Z,101387.00
2022-11-09T20:28:53.390Z,101392.84
2022-11-09T20:31:21.230Z,101394.19
2022-11-09T20:33:48.324Z,101388.25
2022-11-09T20:36:15.094Z,101396.78
2022-11-09T20:38:42.381Z,101394.72
2022-11-09T20:41:11.243Z,101380.47
2022-11-09T20:43:38.304Z,101413.50
2022-11-09T20:46:06.727Z,101425.72
2022-11-09T20:51:19.973Z,101429.00
2022-11-09T20:53:48.189Z,101424.88
2022-11-09T20:56:14.784Z,101441.59
2022-11-09T20:58:41.187Z,101446.97
2022-11-09T21:01:11.505Z,101438.91
2022-11-09T21:03:38.307Z,101449.66
2022-11-09T21:06:06.562Z,101446.97
2022-11-09T21:08:33.345Z,101405.72
2022-11-09T21:11:05.216Z,101459.91
2022-11-09T21:13:31.814Z,101447.56
2022-11-09T21:16:12.645Z,101467.44
2022-11-09T21:18:39.542Z,101462.53
2022-11-09T21:21:18.123Z,101468.50
2022-11-09T21:24:03.797Z,101469.50
2022-11-09T21:26:48.699Z,101466.25
2022-11-09T21:29:36.076Z,101460.75
2022-11-09T21:32:02.967Z,101467.66
2022-11-09T21:34:35.359Z,101470.88
2022-11-09T21:37:03.376Z,101474.31
2022-11-09T21:39:29.742Z,101470.94
2022-11-09T21:41:56.087Z,101480.28
2022-11-09T21:44:22.507Z,101464.34
2022-11-09T21:46:48.877Z,101491.16
2022-11-09T21:49:15.462Z,101496.78
2022-11-09T21:51:41.911Z,101483.09
2022-11-09T21:54:09.662Z,101497.44
2022-11-09T21:56:36.117Z,101501.56
2022-11-09T21:59:02.477Z,101509.59
2022-11-09T22:01:28.988Z,101512.31
2022-11-09T22:03:55.538Z,101515.00
2022-11-09T22:06:22.032Z,101528.19
2022-11-09T22:08:48.784Z,101524.97
2022-11-09T22:11:18.507Z,101531.06
2022-11-09T22:14:03.898Z,101526.56
2022-11-09T22:16:33.408Z,101538.78
2022-11-09T22:19:32.182Z,101541.84
2022-11-09T22:21:58.626Z,101522.44
2022-11-09T22:24:25.019Z,101540.06
2022-11-09T22:26:51.420Z,101554.13
2022-11-09T22:29:17.807Z,101538.25
2022-11-09T22:31:44.187Z,101537.81
2022-11-09T22:34:10.575Z,101566.09
2022-11-09T22:36:36.995Z,101563.41
2022-11-09T22:39:03.560Z,101555.84
2022-11-09T22:41:29.950Z,101571.31
2022-11-09T22:43:56.555Z,101572.06
2022-11-09T22:46:22.930Z,101575.00
2022-11-09T22:48:49.561Z,101575.53
2022-11-09T22:51:17.524Z,101545.13
2022-11-09T22:53:48.033Z,101578.53
2022-11-09T22:56:14.451Z,101587.69
2022-11-09T22:58:40.885Z,101594.47
2022-11-09T23:01:11.701Z,101597.88
2022-11-09T23:03:38.166Z,101599.88
2022-11-09T23:06:10.219Z,101595.66
2022-11-09T23:08:40.010Z,101597.03
2022-11-09T23:11:10.006Z,101599.72
2022-11-09T23:13:36.987Z,101612.84
2022-11-09T23:16:06.715Z,101616.56
2022-11-09T23:18:52.373Z,101606.41
2022-11-09T23:21:19.134Z,101618.50
2022-11-09T23:23:45.880Z,101630.09
2022-11-09T23:26:12.343Z,101623.03
2022-11-09T23:28:38.987Z,101616.00
2022-11-09T23:31:08.978Z,101602.91
2022-11-09T23:33:35.638Z,101600.09
2022-11-09T23:36:04.296Z,101615.72
2022-11-09T23:38:35.790Z,101629.81
2022-11-09T23:41:10.735Z,101626.44
2022-11-09T23:43:37.473Z,101616.59
2022-11-09T23:46:07.243Z,101642.13
2022-11-09T23:48:34.467Z,101651.41
2022-11-09T23:51:01.879Z,101652.25
2022-11-09T23:53:30.096Z,101646.19
2022-11-09T23:56:01.497Z,101663.97
2022-11-09T23:58:28.152Z,101667.06
